createdAt,value
2023-02-19T00:01:18.476Z,11.45
2023-02-19T00:03:52.022Z,11.56
2023-02-19T00:06:20.214Z,11.56
2023-02-19T00:08:46.974Z,11.74
2023-02-19T00:11:17.611Z,11.55
2023-02-19T00:13:46.835Z,11.77
2023-02-19T00:16:23.741Z,11.75
2023-02-19T00:18:51.724Z,11.74
2023-02-19T00:21:19.245Z,11.53
2023-02-19T00:23:53.710Z,11.58
2023-02-19T00:26:21.012Z,11.72
2023-02-19T00:28:50.279Z,11.75
2023-02-19T00:31:32.166Z,11.95
2023-02-19T00:34:02.254Z,11.98
2023-02-19T00:36:29.516Z,11.92
2023-02-19T00:38:56.524Z,11.86
2023-02-19T00:41:24.262Z,12.22
2023-02-19T00:44:02.318Z,12.07
2023-02-19T00:46:32.318Z,12.43
2023-02-19T00:48:59.385Z,12.27
2023-02-19T00:51:30.989Z,12.22
2023-02-19T00:53:58.131Z,12.06
2023-02-19T00:56:24.887Z,12.04
2023-02-19T00:58:51.819Z,12.14
2023-02-19T01:01:19.374Z,11.89
2023-02-19T01:03:46.917Z,11.89
2023-02-19T01:06:16.448Z,11.63
2023-02-19T01:08:43.505Z,11.87
2023-02-19T01:11:11.168Z,11.54
2023-02-19T01:13:38.816Z,11.78
2023-02-19T01:16:07.307Z,11.87
2023-02-19T01:18:35.153Z,11.80
2023-02-19T01:21:07.294Z,11.87
2023-02-19T01:23:34.306Z,11.84
2023-02-19T01:26:05.297Z,11.76
2023-02-19T01:28:32.309Z,11.72
2023-02-19T01:31:04.802Z,11.80
2023-02-19T01:33:31.837Z,11.57
2023-02-19T01:35:58.724Z,11.79
2023-02-19T01:38:25.627Z,11.85
2023-02-19T01:41:01.862Z,11.88
2023-02-19T01:43:28.651Z,11.86
2023-02-19T01:45:55.347Z,11.92
2023-02-19T01:48:38.227Z,11.92
2023-02-19T01:51:06.890Z,11.93
2023-02-19T01:53:38.764Z,11.83
2023-02-19T01:56:08.240Z,12.01
2023-02-19T01:58:36.516Z,11.86
2023-02-19T02:01:07.205Z,11.66
2023-02-19T02:03:36.608Z,12.03
2023-02-19T02:06:20.096Z,11.93
2023-02-19T02:09:06.497Z,12.09
2023-02-19T02:11:33.369Z,11.97
2023-02-19T02:14:00.359Z,12.01
2023-02-19T02:17:00.818Z,12.41
2023-02-19T02:19:45.752Z,12.01
2023-02-19T02:22:20.797Z,12.02
2023-02-19T02:24:59.684Z,11.93
2023-02-19T02:28:03.753Z,12.25
2023-02-19T02:30:59.838Z,12.23
2023-02-19T02:33:32.689Z,12.13
2023-02-19T02:36:07.113Z,12.06
2023-02-19T02:38:38.072Z,12.25
2023-02-19T02:41:05.963Z,12.05
2023-02-19T02:43:33.151Z,12.25
2023-02-19T02:45:59.835Z,12.02
2023-02-19T02:48:43.562Z,12.09
2023-02-19T02:51:25.191Z,11.97
2023-02-19T02:54:39.524Z,11.93
2023-02-19T02:57:14.722Z,12.25
2023-02-19T02:59:49.152Z,12.21
2023-02-19T03:02:24.490Z,12.46
2023-02-19T03:05:22.492Z,12.00
2023-02-19T03:08:00.627Z,12.29
2023-02-19T03:10:35.069Z,12.08
2023-02-19T03:13:25.985Z,12.07
2023-02-19T03:16:21.209Z,11.91
2023-02-19T03:19:11.280Z,11.97
2023-02-19T03:21:41.487Z,12.08
2023-02-19T03:24:31.118Z,12.02
2023-02-19T03:27:01.403Z,12.08
2023-02-19T03:29:35.864Z,12.21
2023-02-19T03:32:12.737Z,12.05
2023-02-19T03:34:48.654Z,12.10
2023-02-19T03:37:25.052Z,11.99
2023-02-19T03:39:54.069Z,12.00
2023-02-19T03:42:31.349Z,12.17
2023-02-19T03:45:29.762Z,11.98
2023-02-19T03:48:18.423Z,12.12
2023-02-19T03:51:08.781Z,11.96
2023-02-19T03:53:58.905Z,12.17
2023-02-19T03:56:35.219Z,12.01
2023-02-19T03:59:11.836Z,12.01
2023-02-19T04:01:44.434Z,12.05
2023-02-19T04:04:21.921Z,12.33
2023-02-19T04:06:54.263Z,11.93
2023-02-19T04:09:23.274Z,12.29
2023-02-19T04:11:59.423Z,12.46
2023-02-19T04:14:37.942Z,12.38
2023-02-19T04:17:11.842Z,12.27
2023-02-19T04:19:42.503Z,12.28
2023-02-19T04:22:12.319Z,12.27
2023-02-19T04:24:47.434Z,12.23
2023-02-19T04:27:14.596Z,12.19
2023-02-19T04:29:41.437Z,12.42
2023-02-19T04:32:11.103Z,12.31
2023-02-19T04:34:37.765Z,12.55
2023-02-19T04:37:05.305Z,12.60
2023-02-19T04:39:32.040Z,12.27
2023-02-19T04:41:58.806Z,12.45
2023-02-19T04:44:25.530Z,12.50
2023-02-19T04:46:52.204Z,12.48
2023-02-19T04:49:18.815Z,12.47
2023-02-19T04:51:45.491Z,12.46
2023-02-19T04:54:12.102Z,12.37
2023-02-19T04:56:39.854Z,12.36
2023-02-19T04:59:06.839Z,12.31
2023-02-19T05:01:33.648Z,12.06
2023-02-19T05:04:00.384Z,12.35
2023-02-19T05:06:27.477Z,12.37
2023-02-19T05:08:54.197Z,12.13
2023-02-19T05:11:20.896Z,12.21
2023-02-19T05:13:47.581Z,12.03
2023-02-19T05:16:16.238Z,12.07
2023-02-19T05:18:44.587Z,11.79
2023-02-19T05:21:12.303Z,12.13
2023-02-19T05:23:39.130Z,12.23
2023-02-19T05:26:07.427Z,12.12
2023-02-19T05:28:34.767Z,12.18
2023-02-19T05:31:09.049Z,12.15
2023-02-19T05:33:37.378Z,11.96
2023-02-19T05:36:07.790Z,12.15
2023-02-19T05:38:35.062Z,12.21
2023-02-19T05:41:13.154Z,12.11
2023-02-19T05:43:41.774Z,12.14
2023-02-19T05:46:09.674Z,12.12
2023-02-19T05:48:36.679Z,12.27
2023-02-19T05:51:05.578Z,11.93
2023-02-19T05:53:32.721Z,12.21
2023-02-19T05:55:59.647Z,12.22
2023-02-19T05:58:27.314Z,12.04
2023-02-19T06:00:54.408Z,12.20
2023-02-19T06:03:21.286Z,12.20
2023-02-19T06:05:48.028Z,12.07
2023-02-19T06:08:15.535Z,12.12
2023-02-19T06:10:42.460Z,12.20
2023-02-19T06:13:10.003Z,12.23
2023-02-19T06:15:37.677Z,12.25
2023-02-19T06:18:04.775Z,12.15
2023-02-19T06:20:31.485Z,11.99
2023-02-19T06:22:58.399Z,12.02
2023-02-19T06:25:25.003Z,12.19
2023-02-19T06:27:51.639Z,12.39
2023-02-19T06:30:18.405Z,12.32
2023-02-19T06:32:45.125Z,12.43
2023-02-19T06:35:11.763Z,12.44
2023-02-19T06:37:38.419Z,12.37
2023-02-19T06:40:05.448Z,12.29
2023-02-19T06:42:33.017Z,12.39
2023-02-19T06:44:59.632Z,12.41
2023-02-19T06:47:26.263Z,12.19
2023-02-19T06:49:52.955Z,12.56
2023-02-19T06:52:19.612Z,12.33
2023-02-19T06:54:46.257Z,12.39
2023-02-19T06:57:12.897Z,12.18
2023-02-19T06:59:39.529Z,12.47
2023-02-19T07:02:06.406Z,12.17
2023-02-19T07:04:33.218Z,12.11
2023-02-19T07:07:00.190Z,12.29
2023-02-19T07:09:28.471Z,12.19
2023-02-19T07:11:55.157Z,12.32
2023-02-19T07:14:22.294Z,12.42
2023-02-19T07:16:49.032Z,12.39
2023-02-19T07:19:16.074Z,12.60
2023-02-19T07:21:42.754Z,12.49
2023-02-19T07:24:10.277Z,12.44
2023-02-19T07:26:37.043Z,12.57
2023-02-19T07:29:04.560Z,12.57
2023-02-19T07:31:31.290Z,12.44
2023-02-19T07:33:57.937Z,12.73
2023-02-19T07:36:25.729Z,12.54
2023-02-19T07:38:56.432Z,12.36
2023-02-19T07:41:24.451Z,12.51
2023-02-19T07:43:51.095Z,12.58
2023-02-19T07:46:17.964Z,12.65
2023-02-19T07:48:45.026Z,12.39
2023-02-19T07:51:18.912Z,12.67
2023-02-19T07:53:52.752Z,12.82
2023-02-19T07:56:20.186Z,12.89
2023-02-19T07:58:46.929Z,12.76
2023-02-19T08:01:15.273Z,12.66
2023-02-19T08:03:43.355Z,12.84
2023-02-19T08:06:11.230Z,12.61
2023-02-19T08:08:39.461Z,13.00
2023-02-19T08:11:25.546Z,13.05
2023-02-19T08:13:55.463Z,12.99
2023-02-19T08:16:36.746Z,13.26
2023-02-19T08:19:03.822Z,13.30
2023-02-19T08:21:31.305Z,12.69
2023-02-19T08:23:58.664Z,13.13
2023-02-19T08:26:25.426Z,12.96
2023-02-19T08:28:52.051Z,13.06
2023-02-19T08:31:18.799Z,13.38
2023-02-19T08:33:45.444Z,13.25
2023-02-19T08:36:12.084Z,13.47
2023-02-19T08:38:38.765Z,13.43
2023-02-19T08:41:07.319Z,13.31
2023-02-19T08:43:34.294Z,13.26
2023-02-19T08:46:00.928Z,13.16
2023-02-19T08:48:27.862Z,13.19
2023-02-19T08:51:00.105Z,13.12
2023-02-19T08:53:26.980Z,13.17
2023-02-19T08:55:54.514Z,13.05
2023-02-19T08:58:21.372Z,13.05
2023-02-19T09:00:48.501Z,13.26
2023-02-19T09:03:15.111Z,13.30
2023-02-19T09:05:41.929Z,13.19
2023-02-19T09:08:09.359Z,13.16
2023-02-19T09:10:35.997Z,13.25
2023-02-19T09:13:02.836Z,13.14
2023-02-19T09:15:30.006Z,13.49
2023-02-19T09:17:56.779Z,13.67
2023-02-19T09:20:23.470Z,13.73
2023-02-19T09:22:50.434Z,13.64
2023-02-19T09:25:17.228Z,13.75
2023-02-19T09:27:44.157Z,13.80
2023-02-19T09:30:11.086Z,14.10
2023-02-19T09:32:37.741Z,13.83
2023-02-19T09:35:04.748Z,13.70
2023-02-19T09:37:33.985Z,14.01
2023-02-19T09:40:00.791Z,14.10
2023-02-19T09:42:29.884Z,14.44
2023-02-19T09:44:59.798Z,14.37
2023-02-19T09:47:29.616Z,14.34
2023-02-19T09:50:00.947Z,14.49
2023-02-19T09:52:33.158Z,14.33
2023-02-19T09:55:04.287Z,14.29
2023-02-19T09:57:34.703Z,14.37
2023-02-19T10:00:25.735Z,14.80
2023-02-19T10:03:05.324Z,15.02
2023-02-19T10:05:34.750Z,14.91
2023-02-19T10:08:05.211Z,14.48
2023-02-19T10:10:37.087Z,14.59
2023-02-19T10:13:27.671Z,14.64
2023-02-19T10:16:00.540Z,14.75
2023-02-19T10:18:31.621Z,14.71
2023-02-19T10:20:58.462Z,14.24
2023-02-19T10:23:25.907Z,14.38
2023-02-19T10:25:57.109Z,14.26
2023-02-19T10:28:28.965Z,14.17
2023-02-19T10:30:59.014Z,14.06
2023-02-19T10:33:26.332Z,14.05
2023-02-19T10:36:06.689Z,14.27
2023-02-19T10:38:46.702Z,13.95
2023-02-19T10:41:21.014Z,14.24
2023-02-19T10:44:16.638Z,14.40
2023-02-19T10:46:46.211Z,14.32
2023-02-19T10:49:28.042Z,14.58
2023-02-19T10:51:57.032Z,14.43
2023-02-19T10:54:32.799Z,14.09
2023-02-19T10:57:14.811Z,14.22
2023-02-19T10:59:53.507Z,14.36
2023-02-19T11:02:21.647Z,14.28
2023-02-19T11:05:06.337Z,14.44
2023-02-19T11:07:33.618Z,14.74
2023-02-19T11:10:00.726Z,14.77
2023-02-19T11:12:30.848Z,14.95
2023-02-19T11:15:00.521Z,14.95
2023-02-19T11:17:29.783Z,14.92
2023-02-19T11:20:00.270Z,14.69
2023-02-19T11:22:33.675Z,15.03
2023-02-19T11:25:17.764Z,15.26
2023-02-19T11:28:06.911Z,15.13
2023-02-19T11:30:41.283Z,15.03
2023-02-19T11:33:17.160Z,15.20
2023-02-19T11:35:44.901Z,15.01
2023-02-19T11:38:14.824Z,14.61
2023-02-19T11:40:53.662Z,14.65
2023-02-19T11:43:32.687Z,14.61
2023-02-19T11:46:11.322Z,14.88
2023-02-19T11:48:49.459Z,14.91
2023-02-19T11:51:21.384Z,15.04
2023-02-19T11:53:59.781Z,15.05
2023-02-19T11:56:34.151Z,14.87
2023-02-19T11:59:02.218Z,14.97
2023-02-19T12:01:34.645Z,15.14
2023-02-19T12:04:38.946Z,15.17
2023-02-19T12:07:30.796Z,15.04
2023-02-19T12:10:11.659Z,15.07
2023-02-19T12:12:57.144Z,15.10
2023-02-19T12:15:29.585Z,15.24
2023-02-19T12:18:40.438Z,15.38
2023-02-19T12:21:25.869Z,15.14
2023-02-19T12:24:20.832Z,15.58
2023-02-19T12:27:19.621Z,15.61
2023-02-19T12:30:14.502Z,16.14
2023-02-19T12:33:02.046Z,16.40
2023-02-19T12:35:56.177Z,16.20
2023-02-19T12:38:33.397Z,15.82
2023-02-19T12:41:16.768Z,15.74
2023-02-19T12:43:53.899Z,15.55
2023-02-19T12:46:31.163Z,15.85
2023-02-19T12:49:15.205Z,15.74
2023-02-19T12:52:03.246Z,16.01
2023-02-19T12:54:38.606Z,15.33
2023-02-19T12:57:05.611Z,15.43
2023-02-19T12:59:48.291Z,15.43
2023-02-19T13:02:39.070Z,15.17
2023-02-19T13:05:36.209Z,15.11
2023-02-19T13:08:15.973Z,14.93
2023-02-19T13:10:57.952Z,15.05
2023-02-19T13:13:34.403Z,14.66
2023-02-19T13:16:09.786Z,14.78
2023-02-19T13:18:44.952Z,14.87
2023-02-19T13:21:35.258Z,14.62
2023-02-19T13:24:07.556Z,14.61
2023-02-19T13:27:05.317Z,14.87
2023-02-19T13:29:40.676Z,14.86
2023-02-19T13:32:25.411Z,15.23
2023-02-19T13:35:15.184Z,15.33
2023-02-19T13:37:42.301Z,15.49
2023-02-19T13:40:26.753Z,15.55
2023-02-19T13:42:59.426Z,15.77
2023-02-19T13:45:41.881Z,16.07
2023-02-19T13:48:23.910Z,15.75
2023-02-19T13:51:16.069Z,15.60
2023-02-19T13:53:42.672Z,15.55
2023-02-19T13:56:34.406Z,15.32
2023-02-19T13:59:24.481Z,15.21
2023-02-19T14:01:54.113Z,15.23
2023-02-19T14:04:51.221Z,14.88
2023-02-19T14:07:17.800Z,15.05
2023-02-19T14:09:46.607Z,14.87
2023-02-19T14:12:15.516Z,14.99
2023-02-19T14:14:55.943Z,15.19
2023-02-19T14:17:41.696Z,14.93
2023-02-19T14:20:17.615Z,14.91
2023-02-19T14:22:47.342Z,15.11
2023-02-19T14:25:34.115Z,15.33
2023-02-19T14:28:09.948Z,14.91
2023-02-19T14:30:52.395Z,14.79
2023-02-19T14:33:28.272Z,14.53
2023-02-19T14:36:06.899Z,14.73
2023-02-19T14:38:42.240Z,14.80
2023-02-19T14:41:13.083Z,14.82
2023-02-19T14:43:41.003Z,14.91
2023-02-19T14:46:21.192Z,15.17
2023-02-19T14:48:50.189Z,15.15
2023-02-19T14:51:36.102Z,15.40
2023-02-19T14:54:30.103Z,15.06
2023-02-19T14:56:58.760Z,15.11
2023-02-19T14:59:30.431Z,15.04
2023-02-19T15:01:58.458Z,15.18
2023-02-19T15:04:28.854Z,14.96
2023-02-19T15:06:57.305Z,15.08
2023-02-19T15:09:33.316Z,15.04
2023-02-19T15:12:02.656Z,14.75
2023-02-19T15:14:30.769Z,14.71
2023-02-19T15:17:01.815Z,14.66
2023-02-19T15:19:33.012Z,14.79
2023-02-19T15:21:59.845Z,14.69
2023-02-19T15:24:28.207Z,14.78
2023-02-19T15:26:55.637Z,14.49
2023-02-19T15:29:24.962Z,14.35
2023-02-19T15:31:56.839Z,14.18
2023-02-19T15:34:26.099Z,14.60
2023-02-19T15:36:57.795Z,14.67
2023-02-19T15:39:29.196Z,14.59
2023-02-19T15:42:02.201Z,14.48
2023-02-19T15:44:57.483Z,14.57
2023-02-19T15:47:35.655Z,14.61
2023-02-19T15:50:28.718Z,14.75
2023-02-19T15:53:09.995Z,14.59
2023-02-19T15:55:40.565Z,14.65
2023-02-19T15:58:36.368Z,14.24
2023-02-19T16:01:21.844Z,14.33
2023-02-19T16:03:48.961Z,14.20
2023-02-19T16:06:18.041Z,14.14
2023-02-19T16:09:02.354Z,14.56
2023-02-19T16:11:36.944Z,14.28
2023-02-19T16:14:38.968Z,14.47
2023-02-19T16:17:06.255Z,14.60
2023-02-19T16:19:45.611Z,14.64
2023-02-19T16:22:15.988Z,14.34
2023-02-19T16:24:49.134Z,14.42
2023-02-19T16:27:34.679Z,14.52
2023-02-19T16:30:18.191Z,14.33
2023-02-19T16:32:46.807Z,14.28
2023-02-19T16:35:42.502Z,14.26
2023-02-19T16:38:17.099Z,14.49
2023-02-19T16:40:54.120Z,14.55
2023-02-19T16:43:31.316Z,14.37
2023-02-19T16:45:59.583Z,14.23
2023-02-19T16:48:26.811Z,14.38
2023-02-19T16:50:53.632Z,14.24
2023-02-19T16:53:28.814Z,14.06
2023-02-19T16:55:56.405Z,14.25
2023-02-19T16:58:23.056Z,13.99
2023-02-19T17:00:49.819Z,13.89
2023-02-19T17:03:20.961Z,14.10
2023-02-19T17:05:47.806Z,14.08
2023-02-19T17:08:31.117Z,14.12
2023-02-19T17:10:58.972Z,14.18
2023-02-19T17:13:25.581Z,14.12
2023-02-19T17:15:52.276Z,13.77
2023-02-19T17:18:18.965Z,13.76
2023-02-19T17:20:51.733Z,13.72
2023-02-19T17:23:18.493Z,13.79
2023-02-19T17:25:45.152Z,13.66
2023-02-19T17:28:11.781Z,13.65
2023-02-19T17:30:40.098Z,13.55
2023-02-19T17:33:07.157Z,13.77
2023-02-19T17:35:34.196Z,13.95
2023-02-19T17:38:00.825Z,13.71
2023-02-19T17:40:33.485Z,13.92
2023-02-19T17:43:01.223Z,13.93
2023-02-19T17:45:27.967Z,13.92
2023-02-19T17:47:54.619Z,13.83
2023-02-19T17:50:24.806Z,13.88
2023-02-19T17:52:51.435Z,13.95
2023-02-19T17:55:18.986Z,14.06
2023-02-19T17:57:47.569Z,13.97
2023-02-19T18:00:23.893Z,13.92
2023-02-19T18:02:51.384Z,13.86
2023-02-19T18:05:18.828Z,13.99
2023-02-19T18:07:46.865Z,13.81
2023-02-19T18:10:15.462Z,13.94
2023-02-19T18:12:42.367Z,14.09
2023-02-19T18:15:14.687Z,14.06
2023-02-19T18:17:41.404Z,14.06
2023-02-19T18:20:09.312Z,13.99
2023-02-19T18:22:35.984Z,14.04
2023-02-19T18:25:02.645Z,14.02
2023-02-19T18:27:29.312Z,13.85
2023-02-19T18:29:56.347Z,13.78
2023-02-19T18:32:25.057Z,13.81
2023-02-19T18:34:53.841Z,13.99
2023-02-19T18:37:24.339Z,13.94
2023-02-19T18:39:51.776Z,14.00
2023-02-19T18:42:18.906Z,13.96
2023-02-19T18:44:49.864Z,13.75
2023-02-19T18:47:17.650Z,13.82
2023-02-19T18:49:52.958Z,13.63
2023-02-19T18:52:21.673Z,13.69
2023-02-19T18:54:51.582Z,13.79
2023-02-19T18:57:20.209Z,13.83
2023-02-19T18:59:47.054Z,13.76
2023-02-19T19:02:14.858Z,13.89
2023-02-19T19:04:42.986Z,13.89
2023-02-19T19:07:10.766Z,13.65
2023-02-19T19:09:37.468Z,13.70
2023-02-19T19:12:04.615Z,13.83
2023-02-19T19:14:31.293Z,13.84
2023-02-19T19:16:58.123Z,13.84
2023-02-19T19:19:24.767Z,13.69
2023-02-19T19:21:53.477Z,13.73
2023-02-19T19:24:21.697Z,13.41
2023-02-19T19:26:49.650Z,13.63
2023-02-19T19:29:18.334Z,13.71
2023-02-19T19:31:45.039Z,13.32
2023-02-19T19:34:12.516Z,13.57
2023-02-19T19:36:39.372Z,13.64
2023-02-19T19:39:07.155Z,13.60
2023-02-19T19:41:33.866Z,13.59
2023-02-19T19:44:08.734Z,13.46
2023-02-19T19:46:35.822Z,13.34
2023-02-19T19:49:02.549Z,13.33
2023-02-19T19:51:34.077Z,13.35
2023-02-19T19:54:03.011Z,12.91
2023-02-19T19:56:30.397Z,12.88
2023-02-19T19:58:57.128Z,12.96
2023-02-19T20:01:23.967Z,12.86
2023-02-19T20:03:53.574Z,12.93
2023-02-19T20:06:25.781Z,12.70
2023-02-19T20:08:52.554Z,12.69
2023-02-19T20:11:19.237Z,12.73
2023-02-19T20:13:45.925Z,12.70
2023-02-19T20:16:14.442Z,12.71
2023-02-19T20:18:41.746Z,12.84
2023-02-19T20:21:10.345Z,12.71
2023-02-19T20:23:40.297Z,12.88
2023-02-19T20:26:07.568Z,12.87
2023-02-19T20:28:34.277Z,12.94
2023-02-19T20:31:01.068Z,12.81
2023-02-19T20:33:27.799Z,12.85
2023-02-19T20:35:56.640Z,12.88
2023-02-19T20:38:23.334Z,12.80
2023-02-19T20:40:49.997Z,12.86
2023-02-19T20:43:16.642Z,12.79
2023-02-19T20:45:45.808Z,12.77
2023-02-19T20:48:16.176Z,12.62
2023-02-19T20:50:43.157Z,12.73
2023-02-19T20:53:10.697Z,12.58
2023-02-19T20:55:37.894Z,12.69
2023-02-19T20:58:04.531Z,12.63
2023-02-19T21:00:31.238Z,12.52
2023-02-19T21:02:57.955Z,12.60
2023-02-19T21:05:24.697Z,12.57
2023-02-19T21:07:51.437Z,12.51
2023-02-19T21:10:18.234Z,12.35
2023-02-19T21:12:44.923Z,12.37
2023-02-19T21:15:11.680Z,12.27
2023-02-19T21:17:38.364Z,12.20
2023-02-19T21:20:05.598Z,12.24
2023-02-19T21:22:32.271Z,12.06
2023-02-19T21:24:58.968Z,11.94
2023-02-19T21:27:25.621Z,11.79
2023-02-19T21:29:52.256Z,11.89
2023-02-19T21:32:18.957Z,11.97
2023-02-19T21:34:45.678Z,12.13
2023-02-19T21:37:12.373Z,12.10
2023-02-19T21:39:39.080Z,12.06
2023-02-19T21:42:05.741Z,12.14
2023-02-19T21:44:32.345Z,12.27
2023-02-19T21:46:59.195Z,12.23
2023-02-19T21:49:25.861Z,12.27
2023-02-19T21:51:52.633Z,12.20
2023-02-19T21:54:24.694Z,12.09
2023-02-19T21:56:52.940Z,12.05
2023-02-19T21:59:21.322Z,12.20
2023-02-19T22:01:48.115Z,12.11
2023-02-19T22:04:16.801Z,12.10
2023-02-19T22:06:44.104Z,12.07
2023-02-19T22:09:12.420Z,11.91
2023-02-19T22:11:39.078Z,11.90
2023-02-19T22:14:06.346Z,12.04
2023-02-19T22:16:33.057Z,11.94
2023-02-19T22:19:00.148Z,11.92
2023-02-19T22:21:32.371Z,11.76
2023-02-19T22:24:00.568Z,11.74
2023-02-19T22:26:33.384Z,11.76
2023-02-19T22:29:02.607Z,11.62
2023-02-19T22:31:29.317Z,11.61
2023-02-19T22:33:57.125Z,11.63
2023-02-19T22:36:27.694Z,11.65
2023-02-19T22:38:54.641Z,11.49
2023-02-19T22:41:22.022Z,11.36
2023-02-19T22:43:49.846Z,11.63
2023-02-19T22:46:19.152Z,11.69
2023-02-19T22:48:46.096Z,11.62
2023-02-19T22:51:15.819Z,11.46
2023-02-19T22:53:55.427Z,11.54
2023-02-19T22:56:24.490Z,11.51
2023-02-19T22:58:51.989Z,11.45
2023-02-19T23:01:19.663Z,11.36
2023-02-19T23:03:54.278Z,11.39
2023-02-19T23:06:25.226Z,11.40
2023-02-19T23:08:53.668Z,11.30
2023-02-19T23:11:23.550Z,11.19
2023-02-19T23:13:50.469Z,11.23
2023-02-19T23:16:17.540Z,11.10
2023-02-19T23:18:44.259Z,11.16
2023-02-19T23:21:11.236Z,11.13
2023-02-19T23:23:40.106Z,10.94
2023-02-19T23:26:06.763Z,11.01
2023-02-19T23:28:33.754Z,11.08
2023-02-19T23:31:00.521Z,11.12
2023-02-19T23:33:27.284Z,11.01
2023-02-19T23:35:53.926Z,11.00
2023-02-19T23:38:20.567Z,11.01
2023-02-19T23:40:47.243Z,10.87
2023-02-19T23:43:13.868Z,10.83
2023-02-19T23:45:40.549Z,10.76
2023-02-19T23:48:07.346Z,10.76
2023-02-19T23:50:34.122Z,10.64
2023-02-19T23:53:00.842Z,10.80
2023-02-19T23:55:27.521Z,10.73
2023-02-19T23:57:54.320Z,10.89
